Falls Mill, West Virginia
Current Conditions -  °F | °C
As of 5:51 PM on Thursday 18 Dec 2014 (Local Time) from KBKW Reporting Station
Overcast Overcast  
Wind Chill: -1°   Ceiling: 8000
Heat Index: -1°   Visibility: 10mi
Dew Point: -6°   Wind: 3mph
Humidity: 72%   Direction: 330°NNW
Pressure: 30.09"   Gusts: NA
Location:  38.2586°N, 80.9505°W
Report Text: KBKW 182251Z AUTO 33003KT 10SM OVC080 M01/M06 A3009 RMK AO2 SLP224 T10111056
Loading
Personal Weather Stations






























Interactive Weather Map New forecast layout! Learn more

10-Day Weather Forecast

Advertisements
Track Severe Weather on mobile